Time;durP1;ratioP1;P1;durP2;ratioP2;P2;SDS_P1;SDS_P2;PMS_P1;PMS_P2;Temp;Humidity;BMP_temperature;BMP_pressure;BME280_temperature;BME280_humidity;BME280_pressure;Samples;Min_cycle;Max_cycle;Signal;HPM_P1;HPM_P2
2022/05/30 00:01:32;;;;;;;9.23;2.40;;;9.50;99.90;;;;;;5025747;28;20040;-74
2022/05/30 00:03:58;;;;;;;9.00;2.05;;;9.40;99.90;;;;;;5027909;28;20090;-73
2022/05/30 00:06:25;;;;;;;10.35;2.22;;;9.40;99.90;;;;;;5027220;28;20087;-72
2022/05/30 00:08:51;;;;;;;7.13;2.10;;;9.40;99.90;;;;;;5024029;28;20091;-73
2022/05/30 00:11:17;;;;;;;8.80;2.15;;;9.30;99.90;;;;;;5029030;28;20042;-73
2022/05/30 00:13:44;;;;;;;7.70;2.22;;;9.30;99.90;;;;;;5027239;28;20087;-72
2022/05/30 00:16:12;;;;;;;5.50;2.17;;;9.10;99.90;;;;;;5029275;28;20127;-74
2022/05/30 00:18:38;;;;;;;9.57;2.40;;;9.10;99.90;;;;;;5043906;28;20062;-73
2022/05/30 00:21:04;;;;;;;5.28;2.13;;;9.00;99.90;;;;;;5028780;28;20480;-73
2022/05/30 00:23:30;;;;;;;11.45;2.80;;;9.00;99.90;;;;;;5032209;28;20045;-73
2022/05/30 00:25:56;;;;;;;11.52;2.63;;;9.00;99.90;;;;;;5021973;28;20195;-74
2022/05/30 00:28:22;;;;;;;11.95;2.65;;;8.90;99.90;;;;;;5011861;28;20124;-73
2022/05/30 00:30:49;;;;;;;8.07;2.03;;;8.90;99.90;;;;;;5023418;28;20068;-73
2022/05/30 00:33:17;;;;;;;9.65;2.42;;;8.90;99.90;;;;;;5028069;28;20033;-73
2022/05/30 00:35:43;;;;;;;11.05;2.60;;;8.90;99.90;;;;;;5026952;28;20480;-74
2022/05/30 00:38:09;;;;;;;8.15;2.53;;;8.90;99.90;;;;;;5030041;28;20033;-72
2022/05/30 00:40:37;;;;;;;10.32;2.50;;;8.80;99.90;;;;;;5028970;28;20511;-73
2022/05/30 00:43:30;;;;;;;11.50;2.67;;;8.80;99.90;;;;;;5010385;28;20042;-72
2022/05/30 00:45:58;;;;;;;10.63;2.58;;;8.70;99.90;;;;;;5030819;28;20045;-73
2022/05/30 00:48:28;;;;;;;9.90;2.17;;;8.70;99.90;;;;;;5030721;28;20630;-73
2022/05/30 00:50:58;;;;;;;12.40;2.38;;;8.60;99.90;;;;;;5027426;28;20044;-73
2022/05/30 00:53:24;;;;;;;8.98;2.33;;;8.60;99.90;;;;;;5025500;28;20045;-73
2022/05/30 00:55:50;;;;;;;9.07;2.50;;;8.50;99.90;;;;;;5013686;28;20041;-74
2022/05/30 00:58:19;;;;;;;7.30;2.45;;;8.60;99.90;;;;;;5028091;28;20075;-73
2022/05/30 01:00:45;;;;;;;7.18;2.58;;;8.50;99.90;;;;;;5027609;28;20170;-73
2022/05/30 01:08:40;;;;;;;11.68;2.90;;;8.50;99.90;;;;;;5026895;28;20048;-73
2022/05/30 01:11:06;;;;;;;8.60;2.60;;;8.50;99.90;;;;;;5029317;28;20494;-73
2022/05/30 01:13:32;;;;;;;9.30;2.42;;;8.50;99.90;;;;;;5026412;28;20054;-74
2022/05/30 01:15:57;;;;;;;8.50;2.50;;;8.50;99.90;;;;;;5026073;28;20117;-73
2022/05/30 01:18:28;;;;;;;8.98;2.75;;;8.40;99.90;;;;;;5030307;28;20041;-72
2022/05/30 01:21:37;;;;;;;10.55;2.75;;;8.40;99.90;;;;;;5028756;28;20033;-74
2022/05/30 01:24:21;;;;;;;10.27;2.85;;;8.40;99.90;;;;;;5027479;28;20041;-73
2022/05/30 01:27:09;;;;;;;9.38;2.50;;;8.40;99.90;;;;;;5026212;28;20127;-74
2022/05/30 01:29:42;;;;;;;8.88;2.40;;;8.40;99.90;;;;;;5021826;28;20132;-74
2022/05/30 01:32:08;;;;;;;9.73;2.00;;;8.40;99.90;;;;;;5043052;28;20041;-73
2022/05/30 01:34:34;;;;;;;10.23;2.40;;;8.40;99.90;;;;;;5027211;28;20484;-73
2022/05/30 01:36:59;;;;;;;9.40;2.63;;;8.30;99.90;;;;;;5027344;28;20038;-73
2022/05/30 01:39:25;;;;;;;10.55;2.70;;;8.20;99.90;;;;;;5027199;28;20091;-74
2022/05/30 01:41:51;;;;;;;10.60;2.55;;;8.20;99.90;;;;;;5029844;28;20044;-73
2022/05/30 01:44:17;;;;;;;8.48;2.30;;;8.10;99.90;;;;;;5024533;28;20116;-73
2022/05/30 01:46:43;;;;;;;8.07;2.45;;;8.10;99.90;;;;;;5028114;28;20398;-72
2022/05/30 01:49:09;;;;;;;8.48;2.30;;;8.00;99.90;;;;;;4996455;28;20037;-73
2022/05/30 01:51:34;;;;;;;13.10;2.30;;;8.00;99.90;;;;;;5030719;28;20034;-73
2022/05/30 01:54:00;;;;;;;8.63;2.53;;;8.00;99.90;;;;;;5027543;28;20048;-73
2022/05/30 01:56:26;;;;;;;10.18;2.42;;;7.90;99.90;;;;;;5029171;28;20049;-74
2022/05/30 01:58:52;;;;;;;8.88;2.60;;;7.90;99.90;;;;;;5029285;28;20038;-73
2022/05/30 02:01:20;;;;;;;11.30;3.17;;;7.90;99.90;;;;;;5010507;28;20037;-73
2022/05/30 02:03:48;;;;;;;7.05;2.45;;;7.90;99.90;;;;;;5012577;28;20041;-73
2022/05/30 02:06:14;;;;;;;14.30;2.58;;;7.90;99.90;;;;;;5016212;28;20377;-74
2022/05/30 02:08:40;;;;;;;9.45;3.05;;;8.00;99.90;;;;;;5030235;28;20067;-73
2022/05/30 02:11:08;;;;;;;13.13;3.13;;;7.90;99.90;;;;;;5032021;28;20033;-72
2022/05/30 02:13:35;;;;;;;11.35;3.03;;;8.00;99.90;;;;;;5031263;28;20088;-73
2022/05/30 02:18:56;;;;;;;11.13;2.60;;;8.00;99.90;;;;;;5030546;28;20099;-73
2022/05/30 02:21:21;;;;;;;8.50;2.70;;;7.90;99.90;;;;;;5030791;28;20041;-73
2022/05/30 02:23:47;;;;;;;8.63;2.42;;;7.90;99.90;;;;;;5031307;28;20045;-73
2022/05/30 02:26:13;;;;;;;9.35;2.70;;;7.90;99.90;;;;;;5029667;28;20044;-74
2022/05/30 02:28:38;;;;;;;10.55;2.72;;;7.90;99.90;;;;;;5030251;28;20080;-73
2022/05/30 02:31:04;;;;;;;8.40;2.60;;;7.80;99.90;;;;;;5030948;28;20107;-73
2022/05/30 02:38:59;;;;;;;7.07;2.47;;;7.90;99.90;;;;;;5030092;28;20041;-73
2022/05/30 02:41:24;;;;;;;7.22;2.63;;;7.90;99.90;;;;;;5031669;28;20893;-73
2022/05/30 02:43:53;;;;;;;6.35;2.17;;;7.90;99.90;;;;;;5030718;28;20483;-73
2022/05/30 02:46:18;;;;;;;11.80;3.08;;;7.90;99.90;;;;;;5035863;28;20045;-74
2022/05/30 02:48:44;;;;;;;5.40;2.40;;;8.00;99.90;;;;;;5026873;28;20033;-73
2022/05/30 02:51:10;;;;;;;8.88;2.67;;;8.00;99.90;;;;;;5031442;28;20037;-73
2022/05/30 02:53:36;;;;;;;7.20;2.20;;;8.00;99.90;;;;;;5033039;28;20040;-73
2022/05/30 02:56:03;;;;;;;8.57;2.80;;;8.00;99.90;;;;;;5030490;28;20037;-73
2022/05/30 02:58:29;;;;;;;8.15;2.50;;;8.00;99.90;;;;;;5031645;28;20045;-73
2022/05/30 03:00:54;;;;;;;8.32;2.40;;;8.00;99.90;;;;;;5028120;28;20115;-73
2022/05/30 03:03:20;;;;;;;8.43;2.60;;;8.00;99.90;;;;;;5031090;28;20037;-73
2022/05/30 03:05:45;;;;;;;6.40;2.58;;;8.00;99.90;;;;;;5030795;28;20033;-74
2022/05/30 03:08:11;;;;;;;6.38;2.50;;;7.90;99.90;;;;;;5031495;28;20041;-73
2022/05/30 03:10:37;;;;;;;5.97;2.53;;;7.90;99.90;;;;;;5033211;28;20034;-74
2022/05/30 03:13:05;;;;;;;9.27;2.90;;;7.80;99.90;;;;;;5032188;28;20458;-73
2022/05/30 03:15:31;;;;;;;7.18;2.40;;;7.80;99.90;;;;;;5013728;28;20049;-73
2022/05/30 03:17:57;;;;;;;8.50;2.97;;;7.70;99.90;;;;;;5038966;28;20045;-73
2022/05/30 03:20:24;;;;;;;10.68;2.88;;;7.70;99.90;;;;;;5032442;28;20075;-73
2022/05/30 03:22:50;;;;;;;6.22;2.70;;;7.60;99.90;;;;;;5030740;28;20056;-73
2022/05/30 03:25:17;;;;;;;7.40;3.00;;;7.60;99.90;;;;;;5033399;28;20119;-73
2022/05/30 03:27:44;;;;;;;7.78;2.97;;;7.60;99.90;;;;;;5022962;28;20064;-73
2022/05/30 03:30:11;;;;;;;9.98;3.85;;;7.50;99.90;;;;;;5029371;28;20061;-74
2022/05/30 03:32:37;;;;;;;6.95;2.88;;;7.50;99.90;;;;;;5027180;28;20057;-74
2022/05/30 03:35:04;;;;;;;6.97;2.95;;;7.40;99.90;;;;;;5034067;28;20416;-72
2022/05/30 03:37:31;;;;;;;7.90;2.95;;;7.40;99.90;;;;;;5029946;28;20033;-73
2022/05/30 03:39:57;;;;;;;9.85;2.88;;;7.30;99.90;;;;;;5010069;28;20040;-73
2022/05/30 03:42:22;;;;;;;9.40;3.38;;;7.30;99.90;;;;;;5030560;28;20497;-73
2022/05/30 03:44:48;;;;;;;7.03;3.10;;;7.30;99.90;;;;;;5027454;28;20495;-73
2022/05/30 03:47:14;;;;;;;6.07;2.92;;;7.30;99.90;;;;;;5026748;28;20052;-73
2022/05/30 03:49:40;;;;;;;7.63;2.88;;;7.30;99.90;;;;;;5026991;28;20044;-73
2022/05/30 03:52:06;;;;;;;4.90;2.50;;;7.20;99.90;;;;;;5029766;28;20523;-73
2022/05/30 03:54:32;;;;;;;7.93;2.97;;;7.20;99.90;;;;;;5010567;28;20041;-72
2022/05/30 03:56:57;;;;;;;7.53;3.20;;;7.20;99.90;;;;;;5028648;28;20075;-73
2022/05/30 03:59:23;;;;;;;8.80;3.22;;;7.20;99.90;;;;;;5028861;28;20044;-74
2022/05/30 04:01:49;;;;;;;10.82;3.38;;;7.10;99.90;;;;;;5027626;28;20484;-72
2022/05/30 04:04:14;;;;;;;7.00;3.28;;;7.10;99.90;;;;;;5028969;28;20052;-73
2022/05/30 04:06:41;;;;;;;7.15;3.10;;;7.10;99.90;;;;;;5028611;28;20044;-72
2022/05/30 04:09:07;;;;;;;6.57;3.45;;;7.00;99.90;;;;;;5027860;28;20045;-73
2022/05/30 04:11:34;;;;;;;5.45;3.10;;;7.00;99.90;;;;;;5033699;28;20071;-73
2022/05/30 04:14:00;;;;;;;7.60;3.17;;;7.00;99.90;;;;;;5027531;28;20055;-74
2022/05/30 04:16:26;;;;;;;8.07;3.35;;;7.00;99.90;;;;;;5027538;28;20041;-73
2022/05/30 04:18:51;;;;;;;5.53;2.92;;;7.00;99.90;;;;;;5027962;28;20033;-72
2022/05/30 04:21:17;;;;;;;5.68;3.10;;;7.00;99.90;;;;;;5013165;28;20032;-72
2022/05/30 04:23:43;;;;;;;8.13;3.17;;;7.00;99.90;;;;;;5013361;28;20495;-74
2022/05/30 04:26:12;;;;;;;7.68;3.40;;;7.00;99.90;;;;;;5013194;28;20080;-73
2022/05/30 04:28:38;;;;;;;8.93;3.35;;;7.00;99.90;;;;;;5027356;28;20091;-73
2022/05/30 04:31:12;;;;;;;6.38;3.60;;;7.10;99.90;;;;;;5021608;28;20476;-73
2022/05/30 04:33:38;;;;;;;8.25;3.70;;;7.20;99.90;;;;;;5028075;28;20037;-73
2022/05/30 04:36:07;;;;;;;9.18;3.90;;;7.30;99.90;;;;;;5025704;28;20053;-73
2022/05/30 04:38:33;;;;;;;6.57;3.38;;;7.30;99.90;;;;;;5029534;28;20506;-73
2022/05/30 04:40:58;;;;;;;8.93;3.22;;;7.40;99.90;;;;;;5027501;28;20049;-74
2022/05/30 04:43:24;;;;;;;6.72;3.35;;;7.50;99.90;;;;;;5024918;28;20053;-74
2022/05/30 04:46:06;;;;;;;7.07;3.15;;;7.50;99.90;;;;;;5027155;28;20528;-73
2022/05/30 04:48:32;;;;;;;6.55;3.35;;;7.60;99.90;;;;;;5026518;28;20053;-73
2022/05/30 04:50:57;;;;;;;7.45;2.97;;;7.60;99.90;;;;;;5029324;28;20403;-74
2022/05/30 04:53:23;;;;;;;9.07;3.25;;;7.70;99.90;;;;;;5026774;28;20044;-73
2022/05/30 04:55:49;;;;;;;4.88;2.88;;;7.70;99.90;;;;;;5026639;28;20045;-74
2022/05/30 04:58:14;;;;;;;8.07;3.00;;;7.80;99.90;;;;;;5027052;28;20048;-74
2022/05/30 05:00:40;;;;;;;6.43;2.67;;;7.90;99.90;;;;;;5022672;28;20080;-73
2022/05/30 05:03:06;;;;;;;10.45;3.08;;;7.90;99.90;;;;;;5024349;28;20072;-73
2022/05/30 05:05:32;;;;;;;7.18;3.20;;;8.00;99.90;;;;;;5026754;28;20057;-73
2022/05/30 05:08:27;;;;;;;7.82;2.88;;;8.00;99.90;;;;;;5023855;28;20048;-74
2022/05/30 05:11:04;;;;;;;12.70;3.30;;;8.10;99.90;;;;;;4972796;28;20617;-74
2022/05/30 05:13:30;;;;;;;5.60;3.00;;;8.20;99.90;;;;;;5016415;28;20374;-74
2022/05/30 05:15:56;;;;;;;6.50;2.80;;;8.30;99.90;;;;;;5024733;28;20047;-73
2022/05/30 05:18:22;;;;;;;4.65;2.70;;;8.40;99.90;;;;;;5040673;28;20365;-74
2022/05/30 05:20:48;;;;;;;9.90;3.05;;;8.50;99.90;;;;;;5022938;28;20051;-74
2022/05/30 05:23:13;;;;;;;7.80;2.75;;;8.50;99.90;;;;;;5023467;28;20044;-72
2022/05/30 05:25:40;;;;;;;6.28;2.65;;;8.70;99.90;;;;;;5023614;28;20048;-74
2022/05/30 05:28:07;;;;;;;7.78;2.97;;;8.80;99.90;;;;;;5023152;28;20427;-74
2022/05/30 05:30:33;;;;;;;7.70;2.78;;;8.80;99.90;;;;;;5021868;28;20041;-74
2022/05/30 05:32:58;;;;;;;8.80;2.65;;;8.90;99.90;;;;;;5024071;28;20042;-73
2022/05/30 05:35:24;;;;;;;7.03;2.33;;;8.90;99.90;;;;;;5021441;28;20047;-73
2022/05/30 05:37:49;;;;;;;7.15;2.30;;;9.00;99.90;;;;;;5021169;28;20049;-74
2022/05/30 05:40:15;;;;;;;7.78;2.70;;;9.10;99.90;;;;;;5024554;28;20388;-73
2022/05/30 05:42:41;;;;;;;9.82;2.58;;;9.20;99.90;;;;;;5015623;28;20053;-74
2022/05/30 05:45:07;;;;;;;6.25;2.42;;;9.30;99.90;;;;;;5027640;28;20033;-73
2022/05/30 05:47:34;;;;;;;6.97;2.10;;;9.40;99.90;;;;;;5026782;28;20068;-74
2022/05/30 05:50:00;;;;;;;9.07;2.50;;;9.50;99.90;;;;;;5025984;28;20037;-73
2022/05/30 05:52:28;;;;;;;8.60;2.17;;;9.70;99.90;;;;;;5034388;28;20045;-74
2022/05/30 05:54:55;;;;;;;4.25;2.00;;;9.80;99.90;;;;;;5028602;28;20504;-74
2022/05/30 05:57:21;;;;;;;7.22;2.08;;;10.00;99.90;;;;;;5028160;28;20496;-74
2022/05/30 05:59:47;;;;;;;6.13;2.05;;;10.10;99.90;;;;;;5029887;28;20511;-73
2022/05/30 06:02:13;;;;;;;8.88;1.80;;;10.20;99.90;;;;;;5028708;28;20053;-74
2022/05/30 06:04:39;;;;;;;6.88;2.05;;;10.30;99.90;;;;;;5029046;28;20136;-73
2022/05/30 06:07:06;;;;;;;7.93;2.05;;;10.30;99.90;;;;;;5031760;28;20092;-74
2022/05/30 06:09:32;;;;;;;6.82;1.80;;;10.30;99.90;;;;;;5031505;28;20048;-73
2022/05/30 06:11:59;;;;;;;5.57;1.77;;;10.20;99.90;;;;;;5030786;28;20053;-73
2022/05/30 06:14:25;;;;;;;7.70;1.83;;;10.20;99.90;;;;;;5028574;28;20056;-73
2022/05/30 06:16:51;;;;;;;7.53;2.05;;;10.20;99.90;;;;;;5048775;28;20041;-73
2022/05/30 06:19:17;;;;;;;4.15;1.45;;;10.30;99.90;;;;;;5028323;28;20045;-74
2022/05/30 06:21:42;;;;;;;3.75;1.50;;;10.30;99.90;;;;;;5007142;28;20066;-73
2022/05/30 06:24:10;;;;;;;4.95;1.60;;;10.30;99.90;;;;;;5025279;28;20111;-73
2022/05/30 06:26:35;;;;;;;5.85;1.60;;;10.40;99.90;;;;;;5025786;28;20053;-73
2022/05/30 06:29:02;;;;;;;3.78;1.10;;;10.40;99.90;;;;;;5029392;28;20044;-73
2022/05/30 06:31:29;;;;;;;4.22;1.40;;;10.40;99.90;;;;;;5025675;28;20052;-73
2022/05/30 06:33:58;;;;;;;3.10;1.20;;;10.50;99.90;;;;;;5029507;28;20080;-73
2022/05/30 06:36:24;;;;;;;5.63;1.52;;;10.60;99.90;;;;;;5031039;28;20045;-73
2022/05/30 06:38:52;;;;;;;4.90;1.58;;;10.60;99.90;;;;;;5030820;28;20088;-73
2022/05/30 06:41:22;;;;;;;4.90;1.50;;;10.70;99.90;;;;;;5022646;28;20132;-73
2022/05/30 06:43:50;;;;;;;5.40;1.40;;;10.70;99.90;;;;;;5027932;28;20111;-73
2022/05/30 06:46:16;;;;;;;2.65;1.10;;;10.70;99.90;;;;;;5025361;28;20057;-73
2022/05/30 06:48:42;;;;;;;5.05;1.23;;;10.80;99.90;;;;;;5024340;28;20131;-73
2022/05/30 06:51:11;;;;;;;4.38;1.75;;;10.90;99.90;;;;;;5019029;28;20164;-73
2022/05/30 06:53:37;;;;;;;4.20;1.27;;;11.10;99.90;;;;;;5024587;28;20132;-73
2022/05/30 06:56:10;;;;;;;3.78;1.00;;;11.30;99.90;;;;;;5023875;28;20164;-73
2022/05/30 06:58:36;;;;;;;5.85;1.00;;;11.40;99.90;;;;;;5027381;28;20025;-73
2022/05/30 07:01:02;;;;;;;3.70;0.90;;;11.50;99.90;;;;;;5027366;28;20041;-73
2022/05/30 07:03:28;;;;;;;2.78;0.80;;;11.70;99.90;;;;;;5023254;28;20057;-73
2022/05/30 07:05:54;;;;;;;2.88;0.80;;;11.80;99.90;;;;;;5022872;28;20046;-73
2022/05/30 07:08:23;;;;;;;3.75;0.90;;;11.90;99.90;;;;;;5026837;28;20063;-73
2022/05/30 07:10:50;;;;;;;4.00;1.10;;;11.90;99.90;;;;;;5025482;28;20049;-73
2022/05/30 07:13:16;;;;;;;3.22;1.13;;;12.10;99.90;;;;;;5027406;28;20048;-73
2022/05/30 07:15:42;;;;;;;2.65;0.82;;;12.40;99.90;;;;;;5027573;28;20037;-70
2022/05/30 07:18:10;;;;;;;4.55;0.70;;;12.60;99.90;;;;;;5027198;28;20037;-71
2022/05/30 07:20:36;;;;;;;2.45;0.82;;;12.70;99.90;;;;;;5027181;28;20171;-73
2022/05/30 07:23:02;;;;;;;2.95;0.80;;;12.70;99.90;;;;;;5027521;28;20080;-73
2022/05/30 07:25:28;;;;;;;2.08;0.65;;;12.90;99.90;;;;;;5030894;28;20048;-73
2022/05/30 07:27:54;;;;;;;1.90;0.93;;;12.90;99.90;;;;;;5032116;28;20041;-73
2022/05/30 07:30:19;;;;;;;0.88;0.55;;;13.00;99.90;;;;;;5028259;28;20087;-73
2022/05/30 07:32:45;;;;;;;2.17;0.75;;;13.00;99.90;;;;;;5027584;28;20623;-73
2022/05/30 07:35:11;;;;;;;3.08;0.80;;;13.00;99.90;;;;;;5028457;28;20045;-72
2022/05/30 07:37:36;;;;;;;2.30;0.70;;;13.10;99.90;;;;;;5024484;28;20045;-73
2022/05/30 07:40:04;;;;;;;4.13;0.82;;;13.20;99.90;;;;;;5030388;28;20052;-73
2022/05/30 07:42:30;;;;;;;2.83;0.70;;;13.30;99.90;;;;;;5027422;28;20050;-73
2022/05/30 07:44:55;;;;;;;1.65;0.50;;;13.30;99.90;;;;;;5026398;28;20057;-73
2022/05/30 07:47:22;;;;;;;2.50;0.65;;;13.40;99.90;;;;;;5027524;28;20042;-73
2022/05/30 07:49:48;;;;;;;1.85;0.63;;;13.40;99.90;;;;;;5026844;28;20145;-72
2022/05/30 07:52:14;;;;;;;2.28;0.80;;;13.60;99.90;;;;;;5028188;28;20491;-73
2022/05/30 07:54:39;;;;;;;1.08;0.43;;;13.60;99.90;;;;;;5027218;28;20029;-73
2022/05/30 07:57:07;;;;;;;1.48;0.57;;;13.40;99.90;;;;;;5027487;28;20056;-73
2022/05/30 07:59:35;;;;;;;1.85;0.70;;;13.50;99.90;;;;;;5029675;28;20036;-73
2022/05/30 08:02:01;;;;;;;3.05;0.80;;;13.60;99.90;;;;;;5027764;28;20045;-73
2022/05/30 08:04:26;;;;;;;2.05;0.75;;;13.60;99.90;;;;;;5028946;28;20486;-73
2022/05/30 08:06:52;;;;;;;2.35;0.55;;;13.70;99.90;;;;;;5026085;28;20048;-72
2022/05/30 08:09:18;;;;;;;1.48;0.65;;;13.80;99.90;;;;;;5024172;28;20037;-73
2022/05/30 08:11:44;;;;;;;1.95;0.60;;;13.90;99.90;;;;;;5026500;28;20041;-73
2022/05/30 08:14:10;;;;;;;1.10;0.50;;;13.70;99.90;;;;;;5032432;28;20094;-73
2022/05/30 08:16:37;;;;;;;1.17;0.40;;;13.80;99.90;;;;;;5027733;28;20564;-73
2022/05/30 08:19:07;;;;;;;2.20;0.40;;;13.90;99.90;;;;;;5026322;28;20100;-73
2022/05/30 08:21:34;;;;;;;1.15;0.50;;;14.10;99.90;;;;;;5013843;28;20037;-73
2022/05/30 08:24:00;;;;;;;0.65;0.35;;;14.20;99.90;;;;;;5027864;28;20396;-73
2022/05/30 08:26:26;;;;;;;2.92;0.40;;;14.40;99.90;;;;;;5031023;28;20038;-73
2022/05/30 08:28:51;;;;;;;1.02;0.50;;;14.50;99.90;;;;;;5025190;28;20087;-73
2022/05/30 08:31:17;;;;;;;2.58;0.60;;;14.70;99.90;;;;;;5029161;28;20033;-73
2022/05/30 08:33:43;;;;;;;1.55;0.50;;;14.80;99.90;;;;;;5032119;28;20046;-73
2022/05/30 08:36:12;;;;;;;1.90;0.43;;;14.90;99.90;;;;;;5027220;28;20041;-73
2022/05/30 08:38:39;;;;;;;3.47;0.50;;;14.70;99.90;;;;;;5031006;28;20041;-73
2022/05/30 08:43:54;;;;;;;1.30;0.40;;;14.60;99.90;;;;;;5024251;28;20051;-73
2022/05/30 08:46:47;;;;;;;1.45;0.40;;;14.60;99.90;;;;;;5031845;28;20033;-73
2022/05/30 08:49:16;;;;;;;;;;;14.60;99.90;;;;;;5026518;28;20045;-73
2022/05/30 08:52:07;;;;;;;1.25;0.45;;;14.60;99.90;;;;;;5027151;28;20015;-73
2022/05/30 08:54:36;;;;;;;1.23;0.55;;;14.60;99.90;;;;;;5021257;28;20053;-73
2022/05/30 08:57:07;;;;;;;1.77;0.70;;;14.50;99.90;;;;;;5014044;28;20045;-72
2022/05/30 08:59:58;;;;;;;3.07;0.53;;;14.40;99.90;;;;;;5029383;28;20057;-73
2022/05/30 09:02:51;;;;;;;2.25;0.70;;;14.20;99.90;;;;;;5030371;28;20489;-73
2022/05/30 09:05:25;;;;;;;1.20;0.47;;;14.00;99.90;;;;;;5025148;28;20079;-72
2022/05/30 09:07:57;;;;;;;20.38;1.77;;;13.80;99.90;;;;;;5030034;28;20384;-73
2022/05/30 09:10:29;;;;;;;2.92;0.68;;;13.80;99.90;;;;;;5027436;28;20480;-72
2022/05/30 09:13:05;;;;;;;2.00;0.73;;;13.70;99.90;;;;;;5025798;28;20066;-73
2022/05/30 09:15:43;;;;;;;1.10;0.43;;;13.70;99.90;;;;;;5029055;28;20041;-73
2022/05/30 09:18:19;;;;;;;0.60;0.50;;;13.70;99.90;;;;;;5025302;28;20029;-73
2022/05/30 09:20:44;;;;;;;1.10;0.52;;;13.70;99.90;;;;;;5025743;28;20492;-73
2022/05/30 09:23:12;;;;;;;1.60;0.60;;;13.80;99.90;;;;;;5027632;28;20116;-73
2022/05/30 09:25:55;;;;;;;1.73;0.60;;;13.80;99.90;;;;;;5024660;28;20152;-73
2022/05/30 09:28:21;;;;;;;0.88;0.40;;;13.90;99.90;;;;;;5013392;28;21353;-73
2022/05/30 09:31:15;;;;;;;1.13;0.50;;;14.00;99.90;;;;;;5025738;28;20412;-73
2022/05/30 09:33:44;;;;;;;0.77;0.50;;;14.10;99.90;;;;;;5026491;28;20484;-73
2022/05/30 09:36:31;;;;;;;1.60;0.60;;;14.10;99.90;;;;;;5025848;28;20381;-73
2022/05/30 09:39:04;;;;;;;0.98;0.50;;;14.30;99.90;;;;;;5025390;28;20033;-73
2022/05/30 09:41:39;;;;;;;1.45;0.50;;;14.40;99.90;;;;;;5024964;28;20045;-73
2022/05/30 09:44:21;;;;;;;1.98;0.60;;;14.50;99.90;;;;;;5026086;28;20033;-73
2022/05/30 09:46:52;;;;;;;1.83;0.73;;;14.70;99.90;;;;;;5008427;28;20531;-72
2022/05/30 09:49:21;;;;;;;1.38;0.68;;;14.80;99.90;;;;;;5024711;28;20037;-72
2022/05/30 09:51:50;;;;;;;2.72;0.73;;;14.90;99.90;;;;;;5026250;28;20589;-72
2022/05/30 09:54:24;;;;;;;4.45;0.60;;;15.00;99.90;;;;;;5026403;28;20435;-73
2022/05/30 09:56:54;;;;;;;2.17;0.80;;;15.10;99.90;;;;;;5029416;28;20080;-72
2022/05/30 09:59:40;;;;;;;1.67;0.80;;;15.00;99.90;;;;;;5028055;28;20037;-73
2022/05/30 10:02:31;;;;;;;2.25;0.70;;;15.10;99.90;;;;;;5040054;28;20391;-73
2022/05/30 10:05:07;;;;;;;0.60;0.40;;;15.10;99.90;;;;;;5026706;28;20106;-74
2022/05/30 10:07:34;;;;;;;2.70;0.60;;;15.10;99.90;;;;;;5027424;28;20038;-73
2022/05/30 10:10:03;;;;;;;1.38;0.50;;;15.10;99.90;;;;;;5025771;28;20099;-72
2022/05/30 10:12:40;;;;;;;2.28;0.68;;;15.20;99.90;;;;;;5026564;28;20075;-73
2022/05/30 10:15:26;;;;;;;2.40;0.30;;;15.30;99.90;;;;;;5022529;28;20045;-73
2022/05/30 10:17:53;;;;;;;0.38;0.38;;;15.50;99.90;;;;;;5024424;28;20057;-74
2022/05/30 10:20:31;;;;;;;0.98;0.50;;;15.70;99.90;;;;;;5026000;28;20400;-73
2022/05/30 10:28:54;;;;;;;1.42;0.40;;;16.40;95.80;;;;;;5023873;28;20068;-72
2022/05/30 10:31:38;;;;;;;1.85;0.45;;;16.20;99.80;;;;;;5029449;28;20046;-73
2022/05/30 10:34:22;;;;;;;2.20;0.50;;;16.30;99.70;;;;;;5025413;28;20114;-73
2022/05/30 10:37:08;;;;;;;1.48;0.50;;;16.40;98.60;;;;;;5022210;28;20044;-73
2022/05/30 10:40:02;;;;;;;2.22;0.43;;;16.30;94.50;;;;;;5024561;28;20063;-73
2022/05/30 10:42:54;;;;;;;1.65;0.40;;;16.40;97.70;;;;;;5027009;28;20046;-73
2022/05/30 10:45:57;;;;;;;4.90;0.40;;;16.60;93.40;;;;;;5028547;28;20033;-73
2022/05/30 10:48:25;;;;;;;1.02;0.25;;;16.70;95.80;;;;;;5027404;28;20033;-73
2022/05/30 10:51:16;;;;;;;3.13;0.68;;;16.60;94.90;;;;;;5029021;28;20041;-73
2022/05/30 10:53:53;;;;;;;4.15;0.82;;;16.30;89.00;;;;;;5021062;28;20049;-73
2022/05/30 10:56:26;;;;;;;1.70;0.57;;;15.80;98.30;;;;;;5026911;28;20033;-73
2022/05/30 10:58:58;;;;;;;;;;;15.40;99.90;;;;;;5029114;28;20037;-73
2022/05/30 11:01:46;;;;;;;1.13;0.43;;;15.30;99.90;;;;;;5029838;28;19932;-73
2022/05/30 11:04:38;;;;;;;3.15;0.73;;;15.00;99.90;;;;;;5028322;28;20041;-73
2022/05/30 11:07:17;;;;;;;2.63;0.80;;;14.70;99.90;;;;;;5032554;28;20034;-73
2022/05/30 11:09:56;;;;;;;2.53;0.85;;;14.50;99.90;;;;;;5029745;28;20148;-73
2022/05/30 11:12:38;;;;;;;4.00;0.70;;;14.50;99.90;;;;;;5029021;28;20037;-73
2022/05/30 11:15:27;;;;;;;2.13;0.85;;;14.40;99.90;;;;;;5030879;28;20559;-72
2022/05/30 11:18:10;;;;;;;2.33;0.60;;;14.50;99.90;;;;;;5028540;28;20072;-72
2022/05/30 11:21:00;;;;;;;2.80;0.90;;;14.60;99.90;;;;;;5027647;28;20048;-71
2022/05/30 11:23:26;;;;;;;1.02;0.70;;;14.90;99.90;;;;;;5027889;28;20073;-71
2022/05/30 11:26:26;;;;;;;2.35;0.75;;;15.00;99.90;;;;;;5031628;28;20135;-71
2022/05/30 11:29:15;;;;;;;3.30;0.70;;;15.20;99.90;;;;;;5028831;28;20045;-71
2022/05/30 11:31:55;;;;;;;1.67;0.70;;;15.20;99.90;;;;;;5033291;28;20052;-71
2022/05/30 11:34:43;;;;;;;1.65;0.80;;;15.10;99.90;;;;;;5029556;28;20037;-72
2022/05/30 11:37:37;;;;;;;4.63;1.05;;;15.10;99.90;;;;;;5025154;28;20033;-71
2022/05/30 11:40:34;;;;;;;2.45;0.80;;;14.90;99.90;;;;;;5031406;28;20033;-71
2022/05/30 11:43:37;;;;;;;1.88;0.60;;;15.00;99.90;;;;;;5024889;28;20041;-71
2022/05/30 11:46:21;;;;;;;2.67;0.70;;;15.10;99.90;;;;;;5031705;28;20047;-71
2022/05/30 11:49:09;;;;;;;1.35;0.68;;;15.20;99.90;;;;;;5027603;28;20065;-71
2022/05/30 11:51:49;;;;;;;3.17;0.80;;;15.30;99.90;;;;;;5040843;28;20068;-71
2022/05/30 11:55:03;;;;;;;1.88;0.65;;;15.20;99.90;;;;;;5041315;28;20130;-71
2022/05/30 11:57:49;;;;;;;2.00;0.60;;;15.30;99.90;;;;;;5011838;28;20049;-71
2022/05/30 12:00:50;;;;;;;2.25;0.60;;;15.50;99.90;;;;;;5022022;28;20048;-70
2022/05/30 12:03:24;;;;;;;3.13;0.73;;;15.70;99.90;;;;;;5011068;28;20071;-71
2022/05/30 12:06:22;;;;;;;2.47;0.77;;;15.50;99.90;;;;;;5042356;28;20048;-71
2022/05/30 12:09:17;;;;;;;2.15;0.80;;;15.40;99.90;;;;;;5024643;28;20068;-71
2022/05/30 12:12:05;;;;;;;2.13;0.70;;;15.40;99.90;;;;;;5024903;28;20075;-71
2022/05/30 12:15:03;;;;;;;3.10;0.73;;;15.20;99.90;;;;;;5026919;28;20052;-71
2022/05/30 12:24:28;;;;;;;3.90;0.65;;;15.10;99.90;;;;;;5028753;28;20091;-71
2022/05/30 12:26:56;;;;;;;1.50;0.57;;;15.20;99.90;;;;;;5025535;28;20045;-71
2022/05/30 12:29:37;;;;;;;4.28;0.93;;;15.30;99.90;;;;;;5023734;28;20041;-70
2022/05/30 12:32:21;;;;;;;1.60;0.60;;;15.50;99.90;;;;;;5027175;28;20050;-71
2022/05/30 12:35:11;;;;;;;2.88;0.65;;;15.60;99.90;;;;;;5026209;28;20049;-71
2022/05/30 12:37:58;;;;;;;2.78;0.70;;;15.90;99.90;;;;;;5028157;28;20033;-71
2022/05/30 12:40:26;;;;;;;2.33;0.70;;;16.50;99.90;;;;;;5029533;28;20136;-70
2022/05/30 12:43:07;;;;;;;2.05;0.60;;;16.90;99.90;;;;;;5020663;28;20046;-71
2022/05/30 12:45:35;;;;;;;3.38;0.63;;;17.10;99.30;;;;;;5028568;28;20049;-71
2022/05/30 12:48:42;;;;;;;4.40;0.80;;;17.30;98.30;;;;;;5028533;28;20117;-71
2022/05/30 12:51:30;;;;;;;2.15;0.70;;;17.50;92.20;;;;;;5043976;28;20049;-71
2022/05/30 12:53:57;;;;;;;2.72;0.60;;;17.40;94.70;;;;;;5025910;28;20124;-71
2022/05/30 12:56:38;;;;;;;2.63;0.60;;;17.30;94.50;;;;;;5029649;28;20037;-71
2022/05/30 12:59:03;;;;;;;3.63;0.70;;;17.30;96.50;;;;;;5029208;28;20040;-71
2022/05/30 13:01:31;;;;;;;1.02;0.60;;;17.40;98.10;;;;;;5027303;28;20123;-71
2022/05/30 13:04:22;;;;;;;1.38;0.50;;;17.50;94.10;;;;;;5030233;28;20128;-71
2022/05/30 13:06:56;;;;;;;1.25;0.50;;;17.70;96.00;;;;;;5025859;28;20415;-71
2022/05/30 13:09:36;;;;;;;5.07;0.60;;;18.10;95.60;;;;;;5031104;28;20037;-71
2022/05/30 13:12:10;;;;;;;1.98;0.50;;;18.60;93.60;;;;;;5025483;28;20067;-71
2022/05/30 13:15:15;;;;;;;3.55;0.80;;;18.70;92.10;;;;;;5026748;28;20044;-71
2022/05/30 13:17:46;;;;;;;3.30;0.47;;;18.90;88.90;;;;;;5024933;28;20059;-71
2022/05/30 13:20:17;;;;;;;0.60;0.40;;;19.20;85.80;;;;;;5026101;28;20041;-71
2022/05/30 13:22:45;;;;;;;1.00;0.50;;;19.80;78.60;;;;;;5022398;28;20041;-71
2022/05/30 13:25:31;;;;;;;2.15;0.40;;;20.10;71.10;;;;;;5026327;28;20047;-71
2022/05/30 13:28:27;;;;;;;3.30;0.57;;;20.20;71.80;;;;;;5027325;28;20476;-71
2022/05/30 13:30:54;;;;;;;1.58;0.40;;;20.30;66.60;;;;;;5022681;28;20495;-71
2022/05/30 13:33:26;;;;;;;1.90;0.50;;;20.20;69.90;;;;;;5029230;28;20033;-72
2022/05/30 13:35:56;;;;;;;0.73;0.35;;;20.20;72.40;;;;;;5028480;28;20388;-71
2022/05/30 13:38:29;;;;;;;0.98;0.30;;;20.10;68.70;;;;;;5023079;28;20484;-71
2022/05/30 13:40:55;;;;;;;0.93;0.38;;;19.90;70.20;;;;;;5029805;28;20654;-71
2022/05/30 13:43:31;;;;;;;0.68;0.40;;;19.90;69.60;;;;;;5031004;28;20051;-71